Time;durP1;ratioP1;P1;durP2;ratioP2;P2;SDS_P1;SDS_P2;PMS_P1;PMS_P2;Temp;Humidity;BMP_temperature;BMP_pressure;BME280_temperature;BME280_humidity;BME280_pressure;Samples;Min_cycle;Max_cycle;Signal;HPM_P1;HPM_P2
2024/01/14 00:01:05;;;;;;;15.40;9.80;;;;;;;-4.24;100.00;98869.43;104651;1257;69407;-66
2024/01/14 00:04:16;;;;;;;19.10;10.70;;;;;;;-4.21;100.00;98864.30;104628;1257;71186;-68
2024/01/14 00:11:54;;;;;;;18.90;12.20;;;;;;;-4.18;100.00;98867.92;104534;1251;59751;-65
2024/01/14 00:19:05;;;;;;;21.80;11.20;;;;;;;-4.13;100.00;98859.74;104378;1258;69134;-66
2024/01/14 00:22:17;;;;;;;17.40;11.00;;;;;;;-4.20;100.00;98839.68;104673;1256;72475;-65
2024/01/14 00:25:30;;;;;;;26.30;12.80;;;;;;;-4.14;100.00;98851.52;104459;1256;60526;-66
2024/01/14 00:28:19;;;;;;;23.20;11.80;;;;;;;-4.15;100.00;98847.74;105024;1257;60705;-66
2024/01/14 00:31:31;;;;;;;24.20;12.10;;;;;;;-4.03;100.00;98840.59;104528;1256;73712;-66
2024/01/14 00:34:44;;;;;;;25.70;13.40;;;;;;;-3.94;100.00;98833.59;104471;1257;69122;-66
2024/01/14 00:37:59;;;;;;;23.50;13.00;;;;;;;-3.98;100.00;98829.81;104701;1257;72968;-66
2024/01/14 00:41:12;;;;;;;24.50;11.70;;;;;;;-3.97;100.00;98821.60;104552;1254;62337;-65
2024/01/14 00:44:26;;;;;;;22.50;12.40;;;;;;;-3.77;100.00;98819.26;108565;1250;60170;-65
2024/01/14 00:47:40;;;;;;;24.40;12.90;;;;;;;-3.73;100.00;98821.83;108510;1251;73711;-66
2024/01/14 00:50:52;;;;;;;45.50;22.30;;;;;;;-3.78;100.00;98811.71;108549;1251;68531;-66
2024/01/14 00:54:04;;;;;;;45.10;22.20;;;;;;;-3.78;100.00;98802.98;108510;1252;72519;-65
2024/01/14 00:57:15;;;;;;;38.00;22.10;;;;;;;-3.65;100.00;98801.45;108490;1251;60294;-66
2024/01/14 01:00:26;;;;;;;38.40;19.40;;;;;;;-3.67;100.00;98804.52;108538;1251;59808;-66
2024/01/14 01:03:22;;;;;;;31.30;19.00;;;;;;;-3.69;100.00;98803.16;108498;1250;73861;-66
2024/01/14 01:06:33;;;;;;;28.70;16.50;;;;;;;-3.68;100.00;98799.91;108513;1250;68256;-66
2024/01/14 01:09:01;;;;;;;30.50;17.90;;;;;;;-3.58;100.00;98788.44;108464;1251;72868;-66
2024/01/14 01:16:31;;;;;;;24.70;16.10;;;;;;;-3.51;100.00;98778.67;108653;1250;58839;-67
2024/01/14 01:19:46;;;;;;;18.30;12.20;;;;;;;-3.56;100.00;98776.78;108548;1251;73594;-64
2024/01/14 01:23:00;;;;;;;23.90;12.80;;;;;;;-3.41;100.00;98769.75;108613;1251;69402;-64
2024/01/14 01:25:53;;;;;;;25.70;15.10;;;;;;;-3.41;100.00;98764.79;108493;1250;72463;-65
2024/01/14 01:36:06;;;;;;;24.70;15.40;;;;;;;-3.36;100.00;98756.39;108481;1251;73726;-65
2024/01/14 01:39:18;;;;;;;19.70;12.90;;;;;;;-3.24;100.00;98750.04;108529;1250;69617;-66
2024/01/14 01:42:30;;;;;;;25.20;15.80;;;;;;;-3.24;100.00;98743.17;108531;1251;72465;-65
2024/01/14 01:45:42;;;;;;;19.60;12.30;;;;;;;-3.23;100.00;98740.27;108428;1250;59838;-65
2024/01/14 01:48:54;;;;;;;19.00;13.10;;;;;;;-3.24;100.00;98733.58;108478;1250;59753;-65
2024/01/14 01:52:06;;;;;;;23.20;16.30;;;;;;;-3.13;100.00;98727.38;108475;1250;74124;-65
2024/01/14 01:55:20;;;;;;;19.20;13.30;;;;;;;-3.14;100.00;98721.90;108572;1251;69159;-65
2024/01/14 01:58:34;;;;;;;15.80;11.10;;;;;;;-3.16;100.00;98721.38;108526;1250;72255;-65
2024/01/14 02:01:45;;;;;;;20.20;13.10;;;;;;;-3.09;100.00;98717.43;108503;1249;61501;-65
2024/01/14 02:04:41;;;;;;;18.10;12.70;;;;;;;-3.02;100.00;98710.55;108426;1251;59724;-65
2024/01/14 02:07:38;;;;;;;18.90;13.20;;;;;;;-3.06;100.00;98702.17;108564;1250;72606;-66
2024/01/14 02:10:49;;;;;;;21.80;14.90;;;;;;;-3.09;100.00;98697.36;108492;1250;69063;-66
2024/01/14 02:14:00;;;;;;;21.40;12.90;;;;;;;-3.10;100.00;98691.72;108476;1251;71622;-65
2024/01/14 02:17:14;;;;;;;24.50;15.50;;;;;;;-2.92;100.00;98696.98;108574;1250;59874;-65
2024/01/14 02:20:25;;;;;;;22.20;14.60;;;;;;;-2.89;100.00;98687.54;108566;1250;60145;-65
2024/01/14 02:23:36;;;;;;;23.00;13.70;;;;;;;-2.90;100.00;98682.38;108530;1250;73649;-65
2024/01/14 02:26:51;;;;;;;21.20;13.50;;;;;;;-2.93;100.00;98679.30;108515;1250;69235;-65
2024/01/14 02:29:20;;;;;;;19.50;12.60;;;;;;;-2.80;100.00;98677.70;108517;1250;72416;-65
2024/01/14 02:31:47;;;;;;;20.70;13.40;;;;;;;-2.76;100.00;98669.29;108528;1251;59053;-65
2024/01/14 02:34:35;;;;;;;23.60;14.80;;;;;;;-2.79;100.00;98667.92;108556;1249;58658;-65
2024/01/14 02:37:50;;;;;;;20.30;12.50;;;;;;;-2.80;100.00;98660.21;108457;1250;73481;-63
2024/01/14 02:40:52;;;;;;;19.20;13.10;;;;;;;-2.79;100.00;98650.42;108480;1250;69041;-64
2024/01/14 02:47:33;;;;;;;18.30;12.60;;;;;;;-2.66;100.00;98634.58;108510;1250;59418;-64
2024/01/14 02:50:45;;;;;;;21.40;13.70;;;;;;;-2.66;100.00;98625.66;108536;1250;58659;-64
2024/01/14 02:53:56;;;;;;;19.70;13.50;;;;;;;-2.63;100.00;98621.52;108589;1250;73696;-65
2024/01/14 02:57:08;;;;;;;20.30;13.70;;;;;;;-2.51;100.00;98620.59;108477;1250;69101;-64
2024/01/14 03:00:20;;;;;;;23.40;15.20;;;;;;;-2.49;100.00;98615.43;108512;1250;72331;-64
2024/01/14 03:02:48;;;;;;;22.90;14.30;;;;;;;-2.54;100.00;98608.08;108536;1251;59107;-64
2024/01/14 03:05:16;;;;;;;;;;;;;;;-2.57;100.00;98601.05;108583;1251;60795;-63
2024/01/14 03:08:28;;;;;;;22.40;14.20;;;;;;;-2.46;100.00;98596.02;108566;1251;74269;-64
2024/01/14 03:11:42;;;;;;;18.20;13.70;;;;;;;-2.43;100.00;98594.27;108550;1251;69663;-64
2024/01/14 03:14:35;;;;;;;20.50;13.90;;;;;;;-2.46;100.00;98590.02;108561;1250;71513;-64
2024/01/14 03:17:46;;;;;;;21.10;13.30;;;;;;;-2.48;100.00;98581.79;108536;1250;60567;-64
2024/01/14 03:20:52;;;;;;;19.20;13.20;;;;;;;-2.39;100.00;98573.99;108516;1251;59666;-65
2024/01/14 03:31:15;;;;;;;18.80;13.10;;;;;;;-2.32;100.00;98563.65;108575;1251;72562;-65
2024/01/14 03:34:26;;;;;;;18.50;13.10;;;;;;;-2.22;100.00;98562.17;108589;1252;58786;-65
2024/01/14 03:37:38;;;;;;;21.30;13.80;;;;;;;-2.21;100.00;98550.85;108527;1251;60172;-64
2024/01/14 03:40:49;;;;;;;16.90;10.80;;;;;;;-2.28;100.00;98553.31;108524;1251;72931;-65
2024/01/14 03:43:17;;;;;;;18.40;13.30;;;;;;;-2.21;100.00;98544.50;108653;1250;69134;-64
2024/01/14 03:46:29;;;;;;;15.50;12.00;;;;;;;-2.13;100.00;98544.08;108555;1251;71099;-64
2024/01/14 03:49:40;;;;;;;17.30;12.80;;;;;;;-2.13;100.00;98544.27;108597;1250;59347;-64
2024/01/14 03:52:51;;;;;;;16.90;11.00;;;;;;;-2.15;100.00;98544.95;108550;1251;59768;-64
2024/01/14 03:55:54;;;;;;;16.40;11.60;;;;;;;-2.08;100.00;98547.98;108574;1250;74482;-64
2024/01/14 04:02:40;;;;;;;16.40;11.40;;;;;;;-2.06;100.00;98539.02;108631;1250;72470;-64
2024/01/14 04:17:40;;;;;;;16.70;11.40;;;;;;;-2.15;100.00;98520.58;108515;1250;69152;-66
2024/01/14 04:20:53;;;;;;;17.00;11.40;;;;;;;-1.97;100.00;98521.27;108613;1251;71212;-65
2024/01/14 04:24:04;;;;;;;17.80;12.00;;;;;;;-2.01;100.00;98514.77;108495;1251;59072;-65
2024/01/14 04:27:15;;;;;;;16.10;11.30;;;;;;;-2.08;100.00;98511.23;108252;1250;59817;-65
2024/01/14 04:30:27;;;;;;;15.40;11.50;;;;;;;-2.04;100.00;98508.97;108536;1250;73675;-65
2024/01/14 04:33:38;;;;;;;19.60;12.50;;;;;;;-1.92;100.00;98506.42;108419;1250;70660;-65
2024/01/14 04:36:07;;;;;;;16.80;11.60;;;;;;;-1.92;100.00;98504.20;108431;1251;72311;-65
2024/01/14 04:43:43;;;;;;;16.80;11.80;;;;;;;-1.78;100.00;98494.77;108622;1250;59877;-66
2024/01/14 04:51:12;;;;;;;17.20;12.00;;;;;;;-1.74;100.00;98488.02;108655;1249;68929;-65
2024/01/14 04:54:17;;;;;;;17.10;12.10;;;;;;;-1.63;100.00;98486.68;108539;1249;73198;-65
2024/01/14 05:01:19;;;;;;;18.00;13.10;;;;;;;-1.65;100.00;98481.20;108480;1250;60118;-62
2024/01/14 05:04:30;;;;;;;16.20;12.50;;;;;;;-1.61;100.00;98479.27;108353;1252;73644;-65
2024/01/14 05:07:41;;;;;;;16.70;12.90;;;;;;;-1.55;100.00;98471.10;108415;1252;70311;-65
2024/01/14 05:10:53;;;;;;;19.20;13.30;;;;;;;-1.59;100.00;98472.20;108375;1252;72470;-66
2024/01/14 05:14:04;;;;;;;17.10;12.20;;;;;;;-1.63;100.00;98463.31;108333;1252;60568;-65
2024/01/14 05:20:53;;;;;;;21.60;13.00;;;;;;;-1.44;100.00;98454.65;108342;1251;73918;-65
2024/01/14 05:27:37;;;;;;;19.50;13.10;;;;;;;-1.35;100.00;98449.72;108334;1252;73457;-65
2024/01/14 05:30:48;;;;;;;15.80;12.20;;;;;;;-1.28;100.00;98455.80;108352;1252;59976;-66
2024/01/14 05:34:01;;;;;;;15.30;11.20;;;;;;;-1.33;100.00;98456.73;108286;1252;59701;-66
2024/01/14 05:37:15;;;;;;;15.30;11.50;;;;;;;-1.37;100.00;98454.22;108341;1252;73777;-65
2024/01/14 05:40:26;;;;;;;17.90;13.00;;;;;;;-1.19;100.00;98448.29;108412;1252;69678;-64
2024/01/14 05:42:54;;;;;;;16.70;11.90;;;;;;;-1.13;100.00;98445.10;108283;1252;72617;-66
2024/01/14 05:57:28;;;;;;;16.60;12.00;;;;;;;-0.98;100.00;98450.89;104144;1268;59914;-67
2024/01/14 06:00:14;;;;;;;15.00;11.00;;;;;;;-0.96;100.00;98450.36;103985;1264;60074;-67
2024/01/14 06:03:27;;;;;;;15.60;11.50;;;;;;;-0.86;100.00;98450.70;104319;1268;71919;-67
2024/01/14 06:06:01;;;;;;;16.60;11.90;;;;;;;-0.86;100.00;98449.17;99772;1269;5531343;-65
2024/01/14 06:09:10;;;;;;;15.90;11.70;;;;;;;-0.97;100.00;98451.40;103900;1264;72863;-65
2024/01/14 06:11:39;;;;;;;14.60;11.50;;;;;;;-0.93;100.00;98449.27;104011;1265;60611;-61
2024/01/14 06:14:48;;;;;;;14.30;10.40;;;;;;;-0.85;100.00;98451.05;103972;1265;59472;-62
2024/01/14 06:17:16;;;;;;;18.10;12.00;;;;;;;-0.87;100.00;98456.23;104411;1262;72122;-61
2024/01/14 06:19:47;;;;;;;15.10;11.60;;;;;;;-0.88;100.00;98456.25;104275;1262;69773;-60
2024/01/14 06:22:59;;;;;;;16.10;10.90;;;;;;;-0.83;100.00;98454.96;103909;1272;73882;-60
2024/01/14 06:26:05;;;;;;;14.30;11.70;;;;;;;-0.77;100.00;98451.60;104557;1261;59813;-59
2024/01/14 06:29:21;;;;;;;16.00;11.60;;;;;;;-0.75;100.00;98449.69;103935;1277;60007;-59
2024/01/14 06:35:36;;;;;;;14.60;11.60;;;;;;;-0.55;100.00;98444.17;103970;1265;69603;-60
2024/01/14 06:38:49;;;;;;;12.30;10.10;;;;;;;-0.49;100.00;98442.02;103861;1262;73344;-60
2024/01/14 06:42:01;;;;;;;14.20;10.60;;;;;;;-0.47;100.00;98435.27;104203;1262;59968;-60
2024/01/14 06:44:29;;;;;;;15.60;10.50;;;;;;;-0.44;100.00;98434.17;104253;1263;60201;-61
2024/01/14 06:51:04;;;;;;;20.80;14.50;;;;;;;-0.31;100.00;98431.02;104269;1262;69612;-62
2024/01/14 06:54:15;;;;;;;14.10;10.80;;;;;;;-0.32;100.00;98431.39;104386;1256;71596;-61
2024/01/14 06:57:32;;;;;;;13.40;11.30;;;;;;;-0.23;100.00;98425.02;104061;1258;61603;-62
2024/01/14 07:00:44;;;;;;;12.40;10.20;;;;;;;-0.19;100.00;98420.13;104279;1256;59808;-61
2024/01/14 07:03:56;;;;;;;12.30;9.80;;;;;;;-0.25;100.00;98418.86;104567;1259;72947;-64
2024/01/14 07:07:09;;;;;;;12.80;10.40;;;;;;;-0.31;100.00;98427.05;104392;1260;68636;-63
2024/01/14 07:09:49;;;;;;;15.40;11.80;;;;;;;-0.19;100.00;98423.57;104920;1255;72936;-59
2024/01/14 07:19:36;;;;;;;13.00;10.70;;;;;;;-0.38;100.00;98422.01;101062;1298;602636;-58
2024/01/14 07:22:48;;;;;;;13.00;10.70;;;;;;;-0.01;100.00;98414.78;103588;1267;61403;-60
2024/01/14 07:26:00;;;;;;;13.80;10.70;;;;;;;0.07;100.00;98409.78;103548;1274;59172;-63
2024/01/14 07:29:12;;;;;;;15.20;11.30;;;;;;;0.21;100.00;98411.06;103544;1289;72063;-59
2024/01/14 07:31:40;;;;;;;17.00;11.50;;;;;;;0.30;100.00;98407.59;100300;1266;5523308;-57
2024/01/14 07:34:50;;;;;;;15.40;11.40;;;;;;;0.21;100.00;98405.88;103834;1267;73408;-60
2024/01/14 07:38:01;;;;;;;14.40;11.20;;;;;;;0.16;100.00;98405.48;103597;1267;61554;-60
2024/01/14 07:44:45;;;;;;;11.80;10.10;;;;;;;0.33;100.00;98404.08;103553;1277;72021;-60
2024/01/14 07:47:57;;;;;;;12.40;10.20;;;;;;;0.51;100.00;98402.52;104239;1261;69616;-60
2024/01/14 07:50:25;;;;;;;11.60;10.00;;;;;;;0.41;100.00;98402.71;103965;1258;73175;-60
2024/01/14 07:57:29;;;;;;;13.70;10.20;;;;;;;0.57;100.00;98394.58;104286;1260;59974;-60
2024/01/14 08:00:42;;;;;;;12.50;10.50;;;;;;;0.44;100.00;98398.85;104170;1264;72852;-60
2024/01/14 08:04:11;;;;;;;13.30;10.00;;;;;;;0.39;100.00;98395.84;104171;1263;70125;-60
2024/01/14 08:07:23;;;;;;;13.70;10.50;;;;;;;1.22;100.00;98400.47;104208;1267;72465;-60
2024/01/14 08:10:36;;;;;;;12.50;9.80;;;;;;;1.93;100.00;98396.39;103956;1264;60614;-60
2024/01/14 08:13:49;;;;;;;16.90;10.70;;;;;;;2.38;100.00;98400.14;104154;1257;59830;-59
2024/01/14 08:16:17;;;;;;;14.00;11.20;;;;;;;2.05;100.00;98400.88;104002;1260;72845;-59
2024/01/14 08:19:35;;;;;;;12.70;10.20;;;;;;;2.13;100.00;98401.34;104076;1257;69990;-60
2024/01/14 08:26:18;;;;;;;12.20;9.20;;;;;;;2.28;100.00;98397.66;104120;1257;59972;-60
2024/01/14 08:37:08;;;;;;;13.60;9.70;;;;;;;4.80;100.00;98388.73;103901;1263;70054;-60
2024/01/14 08:39:50;;;;;;;11.10;9.70;;;;;;;4.64;100.00;98386.76;104363;1262;72514;-62
2024/01/14 08:42:44;;;;;;;11.10;8.10;;;;;;;4.02;100.00;98385.23;103977;1258;60960;-61
2024/01/14 08:45:56;;;;;;;10.40;8.40;;;;;;;3.89;100.00;98382.75;104048;1260;59714;-61
2024/01/14 08:49:10;;;;;;;10.70;8.90;;;;;;;3.89;100.00;98378.93;103950;1262;73760;-60
2024/01/14 08:52:22;;;;;;;11.70;8.90;;;;;;;3.82;100.00;98375.55;103834;1280;69323;-60
2024/01/14 08:55:34;;;;;;;11.30;8.60;;;;;;;3.66;100.00;98376.63;103776;1267;73067;-60
2024/01/14 08:58:47;;;;;;;10.40;8.40;;;;;;;3.63;100.00;98366.85;103942;1260;59749;-60
2024/01/14 09:05:48;;;;;;;10.10;6.90;;;;;;;3.58;100.00;98358.73;103940;1278;72763;-60
2024/01/14 09:09:04;;;;;;;9.90;7.40;;;;;;;3.77;100.00;98354.60;104108;1264;70102;-60
2024/01/14 09:12:19;;;;;;;8.10;7.10;;;;;;;3.54;100.00;98355.55;103869;1261;72555;-60
2024/01/14 09:15:31;;;;;;;10.60;7.00;;;;;;;3.45;100.00;98355.71;104091;1263;59723;-60
2024/01/14 09:17:59;;;;;;;7.60;6.10;;;;;;;3.04;100.00;98350.30;103970;1261;61091;-60
2024/01/14 09:21:15;;;;;;;9.20;6.60;;;;;;;3.10;100.00;98352.73;103942;1267;75040;-61
2024/01/14 09:24:30;;;;;;;10.60;7.00;;;;;;;3.01;100.00;98349.55;104304;1263;68658;-60
2024/01/14 09:27:41;;;;;;;9.80;6.70;;;;;;;3.04;100.00;98342.20;105183;1259;72537;-60
2024/01/14 09:30:53;;;;;;;9.50;6.90;;;;;;;3.09;100.00;98342.88;104382;1259;60602;-60
2024/01/14 09:34:05;;;;;;;8.00;6.80;;;;;;;3.16;100.00;98334.17;104457;1257;59788;-61
2024/01/14 09:37:17;;;;;;;9.40;7.20;;;;;;;3.29;100.00;98332.52;104893;1257;71853;-60
2024/01/14 09:39:48;;;;;;;9.50;7.30;;;;;;;3.48;100.00;98332.39;104123;1261;69250;-60
2024/01/14 09:43:01;;;;;;;8.40;7.40;;;;;;;3.52;100.00;98329.64;104268;1262;72406;-61
2024/01/14 09:46:25;;;;;;;10.30;7.20;;;;;;;3.43;100.00;98324.09;104133;1258;59720;-61
2024/01/14 09:49:38;;;;;;;11.60;8.30;;;;;;;3.23;100.00;98323.20;104814;1258;59882;-60
2024/01/14 09:52:06;;;;;;;18.00;11.30;;;;;;;3.23;100.00;98320.26;104037;1263;72862;-60
2024/01/14 09:55:18;;;;;;;23.90;15.40;;;;;;;3.38;100.00;98315.76;103836;1266;68221;-62
2024/01/14 10:02:50;;;;;;;29.00;18.60;;;;;;;3.61;100.00;98304.55;104221;1261;63072;-63
2024/01/14 10:10:22;;;;;;;10.90;8.00;;;;;;;3.66;100.00;98301.09;104111;1261;73987;-61
2024/01/14 10:17:04;;;;;;;12.00;9.20;;;;;;;3.68;100.00;98289.04;104366;1262;72380;-61
2024/01/14 10:19:54;;;;;;;11.50;7.80;;;;;;;3.74;100.00;98283.64;104682;1258;59829;-60
2024/01/14 10:23:09;;;;;;;9.40;6.80;;;;;;;3.56;100.00;98280.83;104469;1263;61340;-61
2024/01/14 10:26:17;;;;;;;9.10;7.00;;;;;;;3.38;100.00;98276.62;104142;1259;73342;-60
2024/01/14 10:29:29;;;;;;;12.80;7.70;;;;;;;3.48;100.00;98275.36;104081;1259;69326;-60
2024/01/14 10:32:13;;;;;;;11.00;7.80;;;;;;;3.46;100.00;98272.31;104591;1262;72576;-61
2024/01/14 10:34:52;;;;;;;9.50;7.20;;;;;;;3.75;100.00;98269.20;104645;1257;59731;-61
2024/01/14 10:41:56;;;;;;;7.90;6.80;;;;;;;3.64;100.00;98264.74;103902;1264;73879;-61
2024/01/14 10:49:01;;;;;;;13.50;10.40;;;;;;;3.82;100.00;98247.29;104596;1257;73197;-62
2024/01/14 10:55:44;;;;;;;11.30;8.80;;;;;;;4.46;100.00;98242.38;104303;1254;59756;-61
2024/01/14 10:58:56;;;;;;;13.80;10.30;;;;;;;4.15;100.00;98239.09;104935;1253;73715;-63
2024/01/14 11:02:08;;;;;;;14.70;10.40;;;;;;;3.78;100.00;98238.75;105088;1254;69847;-61
2024/01/14 11:04:48;;;;;;;15.10;10.30;;;;;;;3.66;100.00;98231.23;104955;1255;71634;-61
2024/01/14 11:08:03;;;;;;;13.30;9.50;;;;;;;4.06;100.00;98228.85;105024;1253;61561;-61
2024/01/14 11:11:15;;;;;;;11.00;9.60;;;;;;;4.29;100.00;98225.02;104698;1254;60326;-60
2024/01/14 11:14:27;;;;;;;12.10;9.30;;;;;;;4.52;100.00;98219.21;104426;1259;72909;-61
2024/01/14 11:17:38;;;;;;;9.50;7.80;;;;;;;3.88;100.00;98217.73;105281;1255;70235;-61
2024/01/14 11:20:53;;;;;;;11.60;8.40;;;;;;;2.42;100.00;98217.36;104834;1262;73334;-63
2024/01/14 11:24:28;;;;;;;11.40;9.20;;;;;;;3.71;100.00;98212.66;104432;1253;59720;-59
2024/01/14 11:32:00;;;;;;;13.30;10.70;;;;;;;3.97;100.00;98210.64;104432;1269;73432;-61
2024/01/14 11:35:12;;;;;;;13.60;9.80;;;;;;;3.77;100.00;98211.75;104815;1258;69204;-59
2024/01/14 11:38:24;;;;;;;12.20;9.40;;;;;;;3.70;100.00;98203.53;104387;1263;73341;-61
2024/01/14 11:41:37;;;;;;;12.30;10.20;;;;;;;3.82;100.00;98200.13;104323;1254;59698;-59
2024/01/14 11:44:49;;;;;;;11.10;8.70;;;;;;;3.81;100.00;98195.15;105029;1258;60505;-61
2024/01/14 11:48:01;;;;;;;12.50;9.40;;;;;;;3.80;100.00;98191.54;104552;1254;73317;-61
2024/01/14 11:51:13;;;;;;;15.90;9.50;;;;;;;3.80;100.00;98187.92;104292;1259;69546;-61
2024/01/14 11:54:25;;;;;;;11.70;9.30;;;;;;;3.76;100.00;98189.45;104327;1254;74194;-62
2024/01/14 11:57:37;;;;;;;11.10;8.70;;;;;;;4.12;100.00;98185.82;104502;1254;60711;-64
2024/01/14 12:00:50;;;;;;;9.40;8.20;;;;;;;8.06;100.00;98178.48;104550;1259;59752;-63
2024/01/14 12:03:37;;;;;;;10.90;8.80;;;;;;;7.90;100.00;98179.39;104741;1253;71918;-61
2024/01/14 12:10:37;;;;;;;25.30;11.00;;;;;;;6.55;100.00;98179.33;104417;1254;73207;-61
2024/01/14 12:13:40;;;;;;;11.60;9.40;;;;;;;6.31;100.00;98175.64;104437;1256;59744;-60
2024/01/14 12:16:52;;;;;;;12.30;10.00;;;;;;;6.31;100.00;98175.10;104799;1253;59717;-61
2024/01/14 12:19:55;;;;;;;10.70;8.60;;;;;;;5.86;100.00;98174.28;104468;1255;71737;-61
2024/01/14 12:30:30;;;;;;;13.40;9.10;;;;;;;5.59;100.00;98165.09;104778;1253;61229;-60
2024/01/14 12:33:43;;;;;;;14.00;10.90;;;;;;;5.77;100.00;98164.42;104479;1259;59561;-62
2024/01/14 12:36:55;;;;;;;15.80;11.10;;;;;;;5.22;100.00;98162.43;104513;1259;72870;-60
2024/01/14 12:47:32;;;;;;;19.30;13.50;;;;;;;6.19;100.00;98166.45;104387;1255;61600;-60
2024/01/14 12:50:47;;;;;;;22.10;14.90;;;;;;;6.36;100.00;98164.61;104902;1256;60979;-60
2024/01/14 12:53:59;;;;;;;14.90;11.60;;;;;;;5.79;100.00;98165.56;104708;1257;73342;-60
2024/01/14 12:57:11;;;;;;;17.40;12.60;;;;;;;5.85;100.00;98164.40;104690;1256;69041;-60
2024/01/14 13:00:38;;;;;;;19.60;13.40;;;;;;;5.75;100.00;98162.56;104422;1259;72544;-60
2024/01/14 13:03:51;;;;;;;17.20;12.90;;;;;;;4.67;100.00;98168.29;104757;1259;60961;-61
2024/01/14 13:07:03;;;;;;;18.70;13.10;;;;;;;4.57;100.00;98174.40;104561;1255;61150;-61
2024/01/14 13:14:11;;;;;;;17.00;11.60;;;;;;;5.71;100.00;98164.89;104779;1258;70120;-63
2024/01/14 13:21:11;;;;;;;19.60;12.90;;;;;;;4.76;100.00;98173.46;104484;1253;60491;-60
2024/01/14 13:24:23;;;;;;;20.80;14.00;;;;;;;4.74;100.00;98173.17;104286;1254;60835;-60
2024/01/14 13:27:40;;;;;;;16.80;12.30;;;;;;;4.48;100.00;98170.29;104486;1257;73580;-61
2024/01/14 13:30:53;;;;;;;16.50;11.70;;;;;;;4.50;100.00;98167.61;104733;1254;69792;-61
2024/01/14 13:33:21;;;;;;;16.80;12.20;;;;;;;6.87;100.00;98160.84;104290;1256;72090;-60
2024/01/14 13:36:40;;;;;;;14.40;10.60;;;;;;;6.71;100.00;98161.30;104341;1257;60567;-61
2024/01/14 13:39:55;;;;;;;12.80;9.90;;;;;;;6.47;100.00;98157.62;104817;1255;60433;-62
2024/01/14 13:43:06;;;;;;;14.90;10.60;;;;;;;6.87;100.00;98155.45;104586;1255;73315;-60
2024/01/14 13:46:19;;;;;;;16.50;11.30;;;;;;;5.36;100.00;98150.80;104799;1254;69629;-61
2024/01/14 13:49:31;;;;;;;13.20;10.80;;;;;;;4.38;100.00;98158.92;104419;1256;72598;-61
2024/01/14 13:52:44;;;;;;;15.20;11.40;;;;;;;4.10;100.00;98154.29;104399;1256;61852;-61
2024/01/14 14:06:51;;;;;;;16.80;12.30;;;;;;;4.06;100.00;98154.82;104868;1256;73467;-61
2024/01/14 14:09:53;;;;;;;18.50;13.00;;;;;;;4.00;100.00;98149.52;104600;1253;60567;-61
2024/01/14 14:12:43;;;;;;;15.70;10.90;;;;;;;3.77;100.00;98146.23;105217;1253;60297;-61
2024/01/14 14:15:56;;;;;;;14.90;10.80;;;;;;;4.50;100.00;98152.30;104718;1277;73688;-61
2024/01/14 14:23:04;;;;;;;13.90;10.40;;;;;;;5.39;100.00;98150.34;104438;1253;74141;-60
2024/01/14 14:30:05;;;;;;;15.90;11.50;;;;;;;3.69;100.00;98146.73;104999;1253;60578;-61
2024/01/14 14:33:18;;;;;;;15.30;11.50;;;;;;;6.40;100.00;98136.35;104860;1253;74629;-61
2024/01/14 14:36:30;;;;;;;14.20;10.60;;;;;;;5.36;100.00;98138.16;104733;1256;69540;-61
2024/01/14 14:39:42;;;;;;;15.70;10.80;;;;;;;3.57;100.00;98139.09;104360;1260;71564;-60
2024/01/14 14:42:55;;;;;;;16.80;11.20;;;;;;;4.04;100.00;98135.45;104396;1260;61119;-60
2024/01/14 14:46:07;;;;;;;14.40;10.80;;;;;;;3.99;100.00;98136.54;104636;1257;59656;-60
2024/01/14 14:49:26;;;;;;;14.80;11.40;;;;;;;3.45;100.00;98134.13;105508;1258;78193;-61
2024/01/14 14:52:41;;;;;;;16.80;11.70;;;;;;;5.84;100.00;98135.95;105090;1256;69122;-61
2024/01/14 14:55:53;;;;;;;14.70;11.40;;;;;;;3.49;100.00;98146.23;104373;1259;73656;-60
2024/01/14 14:58:53;;;;;;;17.30;11.60;;;;;;;2.93;100.00;98150.05;104790;1255;61370;-61
2024/01/14 15:02:06;;;;;;;15.50;11.20;;;;;;;3.00;100.00;98147.92;104363;1253;60856;-62
2024/01/14 15:09:08;;;;;;;18.40;12.80;;;;;;;5.40;100.00;98144.08;104597;1258;70239;-61
2024/01/14 15:16:11;;;;;;;16.50;11.20;;;;;;;5.32;100.00;98136.25;104620;1262;60869;-61
2024/01/14 15:19:24;;;;;;;15.60;11.20;;;;;;;5.37;100.00;98138.98;104979;1253;60597;-61
2024/01/14 15:22:37;;;;;;;15.60;10.80;;;;;;;5.16;100.00;98138.17;104558;1259;73748;-60
2024/01/14 15:25:49;;;;;;;17.60;11.80;;;;;;;5.07;100.00;98141.52;104980;1258;70031;-61
2024/01/14 15:29:01;;;;;;;16.20;10.80;;;;;;;5.02;100.00;98129.42;104830;1258;73230;-61
2024/01/14 15:32:13;;;;;;;14.90;10.10;;;;;;;4.87;100.00;98133.73;105345;1253;61712;-61
2024/01/14 15:35:28;;;;;;;15.20;10.20;;;;;;;4.74;100.00;98130.84;104488;1253;60824;-65
2024/01/14 15:38:45;;;;;;;12.20;10.30;;;;;;;4.84;100.00;98133.33;104751;1255;73633;-62
2024/01/14 15:41:57;;;;;;;12.00;10.00;;;;;;;4.77;100.00;98126.35;104476;1257;69405;-60
2024/01/14 15:45:10;;;;;;;14.00;10.60;;;;;;;4.77;100.00;98125.66;104810;1261;72477;-61
2024/01/14 15:48:21;;;;;;;16.00;11.60;;;;;;;4.79;100.00;98124.19;104789;1253;60946;-62
2024/01/14 15:51:33;;;;;;;15.80;12.10;;;;;;;4.81;100.00;98121.14;104471;1258;60803;-66
2024/01/14 16:02:40;;;;;;;16.60;12.10;;;;;;;4.91;100.00;98115.52;104541;1258;73946;-60
2024/01/14 16:05:53;;;;;;;17.30;11.60;;;;;;;4.92;100.00;98119.63;104505;1265;59956;-65
2024/01/14 16:08:24;;;;;;;16.20;11.70;;;;;;;4.85;100.00;98117.84;104714;1272;60659;-64
2024/01/14 16:11:36;;;;;;;15.70;10.70;;;;;;;4.75;100.00;98116.73;104397;1262;74001;-69
2024/01/14 16:14:48;;;;;;;14.90;10.40;;;;;;;4.75;100.00;98114.63;104988;1253;69686;-64
2024/01/14 16:18:00;;;;;;;14.60;10.70;;;;;;;4.68;100.00;98114.42;105016;1258;72967;-63
2024/01/14 16:24:27;;;;;;;17.00;11.80;;;;;;;4.65;100.00;98107.09;104447;1252;60958;-62
2024/01/14 16:27:40;;;;;;;16.90;10.50;;;;;;;4.68;100.00;98110.11;104638;1253;74394;-61
2024/01/14 16:30:52;;;;;;;15.30;10.70;;;;;;;4.61;100.00;98110.55;104380;1259;70013;-63
2024/01/14 16:34:20;;;;;;;14.90;11.20;;;;;;;3.10;100.00;98110.15;104455;1258;71718;-61
2024/01/14 16:37:33;;;;;;;16.70;10.90;;;;;;;2.58;100.00;98116.69;104398;1255;61342;-62
2024/01/14 16:47:53;;;;;;;18.40;11.90;;;;;;;2.65;100.00;98108.49;104314;1258;69848;-62
2024/01/14 16:55:24;;;;;;;15.70;11.00;;;;;;;2.64;100.00;98093.30;104342;1258;61736;-61
2024/01/14 16:58:37;;;;;;;15.00;11.20;;;;;;;2.81;100.00;98092.02;104803;1257;60509;-61
2024/01/14 17:01:51;;;;;;;16.50;11.20;;;;;;;2.87;100.00;98093.31;104645;1253;74328;-61
2024/01/14 17:04:51;;;;;;;14.20;11.10;;;;;;;2.80;100.00;98096.89;104409;1259;70185;-61
2024/01/14 17:08:03;;;;;;;15.10;10.40;;;;;;;2.83;100.00;98094.16;104441;1253;74437;-62
2024/01/14 17:15:34;;;;;;;16.90;12.10;;;;;;;2.89;100.00;98096.21;104254;1253;60700;-60
2024/01/14 17:18:47;;;;;;;17.40;12.50;;;;;;;2.87;100.00;98097.15;104840;1255;72986;-61
2024/01/14 17:22:00;;;;;;;16.30;11.70;;;;;;;2.84;100.00;98096.23;104545;1259;68397;-62
2024/01/14 17:25:12;;;;;;;17.50;12.10;;;;;;;2.83;100.00;98097.64;104353;1276;71818;-62
2024/01/14 17:28:24;;;;;;;16.20;11.90;;;;;;;2.85;100.00;98097.38;104506;1260;60841;-62
2024/01/14 17:31:36;;;;;;;15.20;11.30;;;;;;;3.01;100.00;98095.61;104842;1257;60503;-61
2024/01/14 17:34:50;;;;;;;18.70;11.50;;;;;;;2.97;100.00;98095.24;104298;1256;74172;-61
2024/01/14 17:42:21;;;;;;;17.40;11.60;;;;;;;2.74;100.00;98088.96;104775;1254;73048;-59
2024/01/14 17:45:37;;;;;;;15.80;11.80;;;;;;;2.71;100.00;98085.76;104531;1258;60653;-61
2024/01/14 17:48:53;;;;;;;15.40;11.70;;;;;;;2.81;100.00;98090.09;104626;1253;60536;-61
2024/01/14 17:56:26;;;;;;;15.60;10.80;;;;;;;2.70;100.00;98080.95;104461;1258;71120;-61
2024/01/14 17:59:05;;;;;;;17.00;11.70;;;;;;;2.79;100.00;98077.37;104582;1258;72449;-62